sensor_id;sensor_type;location;lat;lon;timestamp;P1;durP1;ratioP1;P2;durP2;ratioP2
69750;SDS011;57335;52.288;6.056;2023-11-19T00:00:48;23.13;;;8.13;;
69750;SDS011;57335;52.288;6.056;2023-11-19T00:03:17;23.02;;;8.52;;
69750;SDS011;57335;52.288;6.056;2023-11-19T00:05:44;22.48;;;8.13;;
69750;SDS011;57335;52.288;6.056;2023-11-19T00:08:10;18.80;;;8.00;;
69750;SDS011;57335;52.288;6.056;2023-11-19T00:10:37;19.88;;;7.82;;
69750;SDS011;57335;52.288;6.056;2023-11-19T00:13:03;27.27;;;8.85;;
69750;SDS011;57335;52.288;6.056;2023-11-19T00:15:30;18.50;;;7.90;;
69750;SDS011;57335;52.288;6.056;2023-11-19T00:17:56;19.38;;;6.97;;
69750;SDS011;57335;52.288;6.056;2023-11-19T00:20:27;22.23;;;7.20;;
69750;SDS011;57335;52.288;6.056;2023-11-19T00:22:54;19.00;;;6.90;;
69750;SDS011;57335;52.288;6.056;2023-11-19T00:25:21;15.35;;;6.72;;
69750;SDS011;57335;52.288;6.056;2023-11-19T00:27:48;20.48;;;6.80;;
69750;SDS011;57335;52.288;6.056;2023-11-19T00:30:14;19.05;;;6.82;;
69750;SDS011;57335;52.288;6.056;2023-11-19T00:32:41;15.38;;;6.13;;
69750;SDS011;57335;52.288;6.056;2023-11-19T00:35:08;18.60;;;6.65;;
69750;SDS011;57335;52.288;6.056;2023-11-19T00:37:41;18.10;;;7.32;;
69750;SDS011;57335;52.288;6.056;2023-11-19T00:40:09;19.13;;;5.60;;
69750;SDS011;57335;52.288;6.056;2023-11-19T00:42:37;19.25;;;6.60;;
69750;SDS011;57335;52.288;6.056;2023-11-19T00:45:03;22.58;;;6.25;;
69750;SDS011;57335;52.288;6.056;2023-11-19T00:47:34;18.38;;;6.28;;
69750;SDS011;57335;52.288;6.056;2023-11-19T00:50:01;21.55;;;6.25;;
69750;SDS011;57335;52.288;6.056;2023-11-19T00:52:28;16.83;;;5.18;;
69750;SDS011;57335;52.288;6.056;2023-11-19T00:54:55;17.00;;;5.20;;
69750;SDS011;57335;52.288;6.056;2023-11-19T00:57:22;23.27;;;5.95;;
69750;SDS011;57335;52.288;6.056;2023-11-19T00:59:50;12.75;;;4.80;;
69750;SDS011;57335;52.288;6.056;2023-11-19T01:02:16;16.02;;;5.38;;
69750;SDS011;57335;52.288;6.056;2023-11-19T01:04:43;18.73;;;5.25;;
69750;SDS011;57335;52.288;6.056;2023-11-19T01:07:10;16.17;;;5.10;;
69750;SDS011;57335;52.288;6.056;2023-11-19T01:09:41;17.33;;;5.15;;
69750;SDS011;57335;52.288;6.056;2023-11-19T01:12:08;12.43;;;5.05;;
69750;SDS011;57335;52.288;6.056;2023-11-19T01:14:36;14.23;;;5.13;;
69750;SDS011;57335;52.288;6.056;2023-11-19T01:17:03;14.35;;;5.25;;
69750;SDS011;57335;52.288;6.056;2023-11-19T01:19:31;17.58;;;4.90;;
69750;SDS011;57335;52.288;6.056;2023-11-19T01:21:57;15.68;;;4.75;;
69750;SDS011;57335;52.288;6.056;2023-11-19T01:24:23;18.30;;;5.18;;
69750;SDS011;57335;52.288;6.056;2023-11-19T01:26:50;22.67;;;5.43;;
69750;SDS011;57335;52.288;6.056;2023-11-19T01:29:17;16.15;;;5.28;;
69750;SDS011;57335;52.288;6.056;2023-11-19T01:31:45;20.63;;;5.43;;
69750;SDS011;57335;52.288;6.056;2023-11-19T01:34:13;17.95;;;4.78;;
69750;SDS011;57335;52.288;6.056;2023-11-19T01:36:40;16.83;;;4.97;;
69750;SDS011;57335;52.288;6.056;2023-11-19T01:39:06;18.98;;;4.80;;
69750;SDS011;57335;52.288;6.056;2023-11-19T01:41:34;20.10;;;4.85;;
69750;SDS011;57335;52.288;6.056;2023-11-19T01:44:03;20.05;;;4.15;;
69750;SDS011;57335;52.288;6.056;2023-11-19T01:46:30;20.08;;;4.57;;
69750;SDS011;57335;52.288;6.056;2023-11-19T01:48:59;19.45;;;4.40;;
69750;SDS011;57335;52.288;6.056;2023-11-19T01:51:26;14.20;;;3.90;;
69750;SDS011;57335;52.288;6.056;2023-11-19T01:53:53;15.70;;;4.20;;
69750;SDS011;57335;52.288;6.056;2023-11-19T01:56:20;17.05;;;4.07;;
69750;SDS011;57335;52.288;6.056;2023-11-19T01:58:47;20.73;;;3.88;;
69750;SDS011;57335;52.288;6.056;2023-11-19T02:01:15;19.52;;;3.75;;
69750;SDS011;57335;52.288;6.056;2023-11-19T02:03:42;21.45;;;4.03;;
69750;SDS011;57335;52.288;6.056;2023-11-19T02:06:09;13.68;;;3.95;;
69750;SDS011;57335;52.288;6.056;2023-11-19T02:08:36;18.77;;;4.38;;
69750;SDS011;57335;52.288;6.056;2023-11-19T02:11:05;19.77;;;3.67;;
69750;SDS011;57335;52.288;6.056;2023-11-19T02:13:33;17.50;;;3.72;;
69750;SDS011;57335;52.288;6.056;2023-11-19T02:16:02;24.45;;;4.00;;
69750;SDS011;57335;52.288;6.056;2023-11-19T02:18:29;19.30;;;3.90;;
69750;SDS011;57335;52.288;6.056;2023-11-19T02:20:57;19.67;;;3.90;;
69750;SDS011;57335;52.288;6.056;2023-11-19T02:23:26;16.30;;;3.80;;
69750;SDS011;57335;52.288;6.056;2023-11-19T02:25:59;19.30;;;3.83;;
69750;SDS011;57335;52.288;6.056;2023-11-19T02:28:32;15.82;;;3.75;;
69750;SDS011;57335;52.288;6.056;2023-11-19T02:30:59;17.65;;;3.67;;
69750;SDS011;57335;52.288;6.056;2023-11-19T02:33:26;26.08;;;4.45;;
69750;SDS011;57335;52.288;6.056;2023-11-19T02:35:52;23.83;;;5.30;;
69750;SDS011;57335;52.288;6.056;2023-11-19T02:38:18;21.45;;;3.90;;
69750;SDS011;57335;52.288;6.056;2023-11-19T02:40:45;16.25;;;4.00;;
69750;SDS011;57335;52.288;6.056;2023-11-19T02:43:11;22.20;;;3.78;;
69750;SDS011;57335;52.288;6.056;2023-11-19T02:45:38;25.55;;;4.13;;
69750;SDS011;57335;52.288;6.056;2023-11-19T02:48:04;23.42;;;4.00;;
69750;SDS011;57335;52.288;6.056;2023-11-19T02:50:32;16.70;;;3.60;;
69750;SDS011;57335;52.288;6.056;2023-11-19T02:52:58;16.38;;;3.60;;
69750;SDS011;57335;52.288;6.056;2023-11-19T02:55:25;20.65;;;3.67;;
69750;SDS011;57335;52.288;6.056;2023-11-19T02:57:53;20.17;;;3.58;;
69750;SDS011;57335;52.288;6.056;2023-11-19T03:00:22;15.30;;;3.22;;
69750;SDS011;57335;52.288;6.056;2023-11-19T03:02:51;22.50;;;3.72;;
69750;SDS011;57335;52.288;6.056;2023-11-19T03:05:26;24.23;;;4.35;;
69750;SDS011;57335;52.288;6.056;2023-11-19T03:07:56;16.17;;;3.30;;
69750;SDS011;57335;52.288;6.056;2023-11-19T03:10:23;22.88;;;3.83;;
69750;SDS011;57335;52.288;6.056;2023-11-19T03:12:50;18.33;;;3.95;;
69750;SDS011;57335;52.288;6.056;2023-11-19T03:15:16;19.83;;;4.30;;
69750;SDS011;57335;52.288;6.056;2023-11-19T03:17:43;18.98;;;3.55;;
69750;SDS011;57335;52.288;6.056;2023-11-19T03:20:10;25.27;;;5.05;;
69750;SDS011;57335;52.288;6.056;2023-11-19T03:22:41;21.40;;;4.03;;
69750;SDS011;57335;52.288;6.056;2023-11-19T03:25:08;19.70;;;3.55;;
69750;SDS011;57335;52.288;6.056;2023-11-19T03:27:35;22.75;;;3.95;;
69750;SDS011;57335;52.288;6.056;2023-11-19T03:30:02;26.38;;;4.50;;
69750;SDS011;57335;52.288;6.056;2023-11-19T03:32:32;21.90;;;3.97;;
69750;SDS011;57335;52.288;6.056;2023-11-19T03:34:59;25.77;;;3.92;;
69750;SDS011;57335;52.288;6.056;2023-11-19T03:37:26;24.60;;;4.05;;
69750;SDS011;57335;52.288;6.056;2023-11-19T03:39:54;23.05;;;4.30;;
69750;SDS011;57335;52.288;6.056;2023-11-19T03:42:21;24.25;;;4.13;;
69750;SDS011;57335;52.288;6.056;2023-11-19T03:44:47;21.77;;;4.32;;
69750;SDS011;57335;52.288;6.056;2023-11-19T03:47:15;23.52;;;3.55;;
69750;SDS011;57335;52.288;6.056;2023-11-19T03:49:42;28.90;;;4.18;;
69750;SDS011;57335;52.288;6.056;2023-11-19T03:52:08;26.77;;;3.80;;
69750;SDS011;57335;52.288;6.056;2023-11-19T03:54:45;21.52;;;3.38;;
69750;SDS011;57335;52.288;6.056;2023-11-19T03:57:12;26.30;;;4.00;;
69750;SDS011;57335;52.288;6.056;2023-11-19T03:59:39;27.55;;;3.80;;
69750;SDS011;57335;52.288;6.056;2023-11-19T04:02:05;22.92;;;3.50;;
69750;SDS011;57335;52.288;6.056;2023-11-19T04:04:32;32.58;;;3.97;;
69750;SDS011;57335;52.288;6.056;2023-11-19T04:07:00;20.65;;;3.58;;
69750;SDS011;57335;52.288;6.056;2023-11-19T04:09:27;23.48;;;3.80;;
69750;SDS011;57335;52.288;6.056;2023-11-19T04:11:53;25.95;;;3.50;;
69750;SDS011;57335;52.288;6.056;2023-11-19T04:14:19;29.52;;;4.88;;
69750;SDS011;57335;52.288;6.056;2023-11-19T04:16:46;22.85;;;3.47;;
69750;SDS011;57335;52.288;6.056;2023-11-19T04:19:12;21.55;;;4.05;;
69750;SDS011;57335;52.288;6.056;2023-11-19T04:21:40;29.73;;;4.10;;
69750;SDS011;57335;52.288;6.056;2023-11-19T04:24:08;21.88;;;4.10;;
69750;SDS011;57335;52.288;6.056;2023-11-19T04:26:40;26.95;;;4.00;;
69750;SDS011;57335;52.288;6.056;2023-11-19T04:29:09;20.85;;;4.30;;
69750;SDS011;57335;52.288;6.056;2023-11-19T04:31:37;28.38;;;4.72;;
69750;SDS011;57335;52.288;6.056;2023-11-19T04:34:03;23.35;;;3.67;;
69750;SDS011;57335;52.288;6.056;2023-11-19T04:36:30;24.83;;;3.75;;
69750;SDS011;57335;52.288;6.056;2023-11-19T04:38:56;25.27;;;3.35;;
69750;SDS011;57335;52.288;6.056;2023-11-19T04:41:22;25.88;;;3.70;;
69750;SDS011;57335;52.288;6.056;2023-11-19T04:43:49;27.40;;;4.13;;
69750;SDS011;57335;52.288;6.056;2023-11-19T04:46:15;22.02;;;3.85;;
69750;SDS011;57335;52.288;6.056;2023-11-19T04:48:42;25.55;;;3.38;;
69750;SDS011;57335;52.288;6.056;2023-11-19T04:51:08;28.95;;;4.10;;
69750;SDS011;57335;52.288;6.056;2023-11-19T04:53:36;25.83;;;4.07;;
69750;SDS011;57335;52.288;6.056;2023-11-19T04:56:07;29.95;;;4.40;;
69750;SDS011;57335;52.288;6.056;2023-11-19T04:58:35;34.42;;;4.50;;
69750;SDS011;57335;52.288;6.056;2023-11-19T05:01:03;30.60;;;3.72;;
69750;SDS011;57335;52.288;6.056;2023-11-19T05:03:30;22.30;;;3.50;;
69750;SDS011;57335;52.288;6.056;2023-11-19T05:05:58;23.52;;;3.25;;
69750;SDS011;57335;52.288;6.056;2023-11-19T05:08:25;27.60;;;4.20;;
69750;SDS011;57335;52.288;6.056;2023-11-19T05:10:52;28.08;;;3.90;;
69750;SDS011;57335;52.288;6.056;2023-11-19T05:13:18;34.58;;;4.82;;
69750;SDS011;57335;52.288;6.056;2023-11-19T05:15:44;29.42;;;4.85;;
69750;SDS011;57335;52.288;6.056;2023-11-19T05:18:11;23.15;;;4.88;;
69750;SDS011;57335;52.288;6.056;2023-11-19T05:20:37;23.77;;;4.25;;
69750;SDS011;57335;52.288;6.056;2023-11-19T05:23:03;27.77;;;4.20;;
69750;SDS011;57335;52.288;6.056;2023-11-19T05:25:30;27.30;;;3.67;;
69750;SDS011;57335;52.288;6.056;2023-11-19T05:27:56;25.55;;;4.47;;
69750;SDS011;57335;52.288;6.056;2023-11-19T05:30:22;29.00;;;4.03;;
69750;SDS011;57335;52.288;6.056;2023-11-19T05:32:49;24.23;;;4.03;;
69750;SDS011;57335;52.288;6.056;2023-11-19T05:35:15;21.17;;;3.47;;
69750;SDS011;57335;52.288;6.056;2023-11-19T05:37:42;25.90;;;4.05;;
69750;SDS011;57335;52.288;6.056;2023-11-19T05:40:09;26.85;;;3.70;;
69750;SDS011;57335;52.288;6.056;2023-11-19T05:42:41;18.95;;;3.80;;
69750;SDS011;57335;52.288;6.056;2023-11-19T05:45:09;20.77;;;3.67;;
69750;SDS011;57335;52.288;6.056;2023-11-19T05:47:37;29.58;;;4.32;;
69750;SDS011;57335;52.288;6.056;2023-11-19T05:50:04;24.48;;;4.20;;
69750;SDS011;57335;52.288;6.056;2023-11-19T05:52:32;23.83;;;3.83;;
69750;SDS011;57335;52.288;6.056;2023-11-19T05:55:00;22.80;;;3.83;;
69750;SDS011;57335;52.288;6.056;2023-11-19T05:57:30;21.67;;;3.45;;
69750;SDS011;57335;52.288;6.056;2023-11-19T05:59:57;23.90;;;3.78;;
69750;SDS011;57335;52.288;6.056;2023-11-19T06:02:25;26.77;;;4.07;;
69750;SDS011;57335;52.288;6.056;2023-11-19T06:04:53;22.13;;;3.72;;
69750;SDS011;57335;52.288;6.056;2023-11-19T06:07:19;25.50;;;4.43;;
69750;SDS011;57335;52.288;6.056;2023-11-19T06:09:46;23.02;;;3.35;;
69750;SDS011;57335;52.288;6.056;2023-11-19T06:12:12;23.40;;;4.03;;
69750;SDS011;57335;52.288;6.056;2023-11-19T06:14:40;27.75;;;4.22;;
69750;SDS011;57335;52.288;6.056;2023-11-19T06:17:06;26.50;;;3.72;;
69750;SDS011;57335;52.288;6.056;2023-11-19T06:19:34;27.30;;;3.92;;
69750;SDS011;57335;52.288;6.056;2023-11-19T06:22:00;20.77;;;2.95;;
69750;SDS011;57335;52.288;6.056;2023-11-19T06:24:27;29.45;;;4.50;;
69750;SDS011;57335;52.288;6.056;2023-11-19T06:26:53;28.73;;;4.00;;
69750;SDS011;57335;52.288;6.056;2023-11-19T06:29:20;21.63;;;3.40;;
69750;SDS011;57335;52.288;6.056;2023-11-19T06:31:46;21.48;;;3.40;;
69750;SDS011;57335;52.288;6.056;2023-11-19T06:34:15;24.15;;;3.30;;
69750;SDS011;57335;52.288;6.056;2023-11-19T06:36:41;24.08;;;3.40;;
69750;SDS011;57335;52.288;6.056;2023-11-19T06:39:11;28.25;;;4.07;;
69750;SDS011;57335;52.288;6.056;2023-11-19T06:41:37;24.27;;;3.67;;
69750;SDS011;57335;52.288;6.056;2023-11-19T06:44:05;29.55;;;4.70;;
69750;SDS011;57335;52.288;6.056;2023-11-19T06:46:31;23.70;;;3.10;;
69750;SDS011;57335;52.288;6.056;2023-11-19T06:48:58;26.75;;;3.83;;
69750;SDS011;57335;52.288;6.056;2023-11-19T06:51:24;29.38;;;4.50;;
69750;SDS011;57335;52.288;6.056;2023-11-19T06:53:51;33.47;;;4.07;;
69750;SDS011;57335;52.288;6.056;2023-11-19T06:56:20;27.27;;;3.85;;
69750;SDS011;57335;52.288;6.056;2023-11-19T06:58:48;31.98;;;3.72;;
69750;SDS011;57335;52.288;6.056;2023-11-19T07:01:15;29.65;;;4.70;;
69750;SDS011;57335;52.288;6.056;2023-11-19T07:03:45;26.17;;;3.95;;
69750;SDS011;57335;52.288;6.056;2023-11-19T07:06:13;28.10;;;4.22;;
69750;SDS011;57335;52.288;6.056;2023-11-19T07:08:42;23.85;;;3.35;;
69750;SDS011;57335;52.288;6.056;2023-11-19T07:11:13;28.38;;;3.72;;
69750;SDS011;57335;52.288;6.056;2023-11-19T07:13:43;29.52;;;3.85;;
69750;SDS011;57335;52.288;6.056;2023-11-19T07:16:09;29.42;;;4.70;;
69750;SDS011;57335;52.288;6.056;2023-11-19T07:18:36;33.75;;;4.20;;
69750;SDS011;57335;52.288;6.056;2023-11-19T07:21:03;26.83;;;4.28;;
69750;SDS011;57335;52.288;6.056;2023-11-19T07:23:30;28.75;;;4.15;;
69750;SDS011;57335;52.288;6.056;2023-11-19T07:25:57;24.48;;;3.90;;
69750;SDS011;57335;52.288;6.056;2023-11-19T07:28:23;31.52;;;4.78;;
69750;SDS011;57335;52.288;6.056;2023-11-19T07:30:51;32.28;;;3.92;;
69750;SDS011;57335;52.288;6.056;2023-11-19T07:33:17;24.45;;;3.50;;
69750;SDS011;57335;52.288;6.056;2023-11-19T07:35:44;25.48;;;3.50;;
69750;SDS011;57335;52.288;6.056;2023-11-19T07:38:10;27.45;;;3.97;;
69750;SDS011;57335;52.288;6.056;2023-11-19T07:46:54;23.33;;;3.45;;
69750;SDS011;57335;52.288;6.056;2023-11-19T07:49:20;23.25;;;3.63;;
69750;SDS011;57335;52.288;6.056;2023-11-19T07:51:47;33.40;;;4.70;;
69750;SDS011;57335;52.288;6.056;2023-11-19T07:54:13;30.10;;;4.47;;
69750;SDS011;57335;52.288;6.056;2023-11-19T07:56:40;23.52;;;4.10;;
69750;SDS011;57335;52.288;6.056;2023-11-19T07:59:06;25.02;;;4.38;;
69750;SDS011;57335;52.288;6.056;2023-11-19T08:01:33;27.67;;;3.53;;
69750;SDS011;57335;52.288;6.056;2023-11-19T08:03:59;29.85;;;4.68;;
69750;SDS011;57335;52.288;6.056;2023-11-19T08:06:28;27.98;;;4.80;;
69750;SDS011;57335;52.288;6.056;2023-11-19T08:08:55;29.10;;;3.80;;
69750;SDS011;57335;52.288;6.056;2023-11-19T08:11:21;25.67;;;4.43;;
69750;SDS011;57335;52.288;6.056;2023-11-19T08:16:33;27.08;;;3.40;;
69750;SDS011;57335;52.288;6.056;2023-11-19T08:18:59;28.92;;;3.70;;
69750;SDS011;57335;52.288;6.056;2023-11-19T08:21:26;28.52;;;3.95;;
69750;SDS011;57335;52.288;6.056;2023-11-19T08:23:53;20.20;;;3.10;;
69750;SDS011;57335;52.288;6.056;2023-11-19T08:26:19;24.40;;;3.55;;
69750;SDS011;57335;52.288;6.056;2023-11-19T08:28:47;26.73;;;4.00;;
69750;SDS011;57335;52.288;6.056;2023-11-19T08:31:14;21.92;;;4.15;;
69750;SDS011;57335;52.288;6.056;2023-11-19T08:33:40;24.05;;;3.50;;
69750;SDS011;57335;52.288;6.056;2023-11-19T08:36:07;25.80;;;3.67;;
69750;SDS011;57335;52.288;6.056;2023-11-19T08:38:34;26.15;;;3.38;;
69750;SDS011;57335;52.288;6.056;2023-11-19T08:41:00;19.27;;;3.25;;
69750;SDS011;57335;52.288;6.056;2023-11-19T08:43:27;21.90;;;3.30;;
69750;SDS011;57335;52.288;6.056;2023-11-19T08:45:54;24.13;;;3.25;;
69750;SDS011;57335;52.288;6.056;2023-11-19T08:48:20;23.60;;;3.20;;
69750;SDS011;57335;52.288;6.056;2023-11-19T08:50:47;25.77;;;3.25;;
69750;SDS011;57335;52.288;6.056;2023-11-19T08:53:14;19.02;;;3.45;;
69750;SDS011;57335;52.288;6.056;2023-11-19T08:55:41;28.98;;;4.55;;
69750;SDS011;57335;52.288;6.056;2023-11-19T08:58:08;23.25;;;3.90;;
69750;SDS011;57335;52.288;6.056;2023-11-19T09:00:34;24.70;;;3.47;;
69750;SDS011;57335;52.288;6.056;2023-11-19T09:03:01;26.85;;;3.55;;
69750;SDS011;57335;52.288;6.056;2023-11-19T09:05:28;19.63;;;3.95;;
69750;SDS011;57335;52.288;6.056;2023-11-19T09:07:55;25.95;;;4.00;;
69750;SDS011;57335;52.288;6.056;2023-11-19T09:10:21;18.98;;;3.75;;
69750;SDS011;57335;52.288;6.056;2023-11-19T09:12:48;20.80;;;3.40;;
69750;SDS011;57335;52.288;6.056;2023-11-19T09:15:14;22.58;;;3.90;;
69750;SDS011;57335;52.288;6.056;2023-11-19T09:17:41;26.40;;;3.90;;
69750;SDS011;57335;52.288;6.056;2023-11-19T09:20:08;20.67;;;3.60;;
69750;SDS011;57335;52.288;6.056;2023-11-19T09:22:38;26.42;;;3.67;;
69750;SDS011;57335;52.288;6.056;2023-11-19T09:25:04;30.17;;;3.78;;
69750;SDS011;57335;52.288;6.056;2023-11-19T09:27:31;22.48;;;4.00;;
69750;SDS011;57335;52.288;6.056;2023-11-19T09:29:57;18.42;;;3.25;;
69750;SDS011;57335;52.288;6.056;2023-11-19T09:32:25;23.45;;;3.60;;
69750;SDS011;57335;52.288;6.056;2023-11-19T09:34:51;23.48;;;4.28;;
69750;SDS011;57335;52.288;6.056;2023-11-19T09:37:18;20.73;;;3.40;;
69750;SDS011;57335;52.288;6.056;2023-11-19T09:39:47;28.00;;;3.88;;
69750;SDS011;57335;52.288;6.056;2023-11-19T09:42:14;33.35;;;5.05;;
69750;SDS011;57335;52.288;6.056;2023-11-19T09:44:42;23.10;;;4.10;;
69750;SDS011;57335;52.288;6.056;2023-11-19T09:47:10;23.75;;;3.30;;
69750;SDS011;57335;52.288;6.056;2023-11-19T09:49:37;26.40;;;4.07;;
69750;SDS011;57335;52.288;6.056;2023-11-19T09:52:05;26.67;;;3.42;;
69750;SDS011;57335;52.288;6.056;2023-11-19T09:54:31;25.60;;;3.83;;
69750;SDS011;57335;52.288;6.056;2023-11-19T09:56:58;27.92;;;3.88;;
69750;SDS011;57335;52.288;6.056;2023-11-19T09:59:29;22.48;;;3.53;;
69750;SDS011;57335;52.288;6.056;2023-11-19T10:01:57;26.45;;;4.15;;
69750;SDS011;57335;52.288;6.056;2023-11-19T10:04:24;28.23;;;3.55;;
69750;SDS011;57335;52.288;6.056;2023-11-19T10:06:55;23.52;;;3.40;;
69750;SDS011;57335;52.288;6.056;2023-11-19T10:09:21;23.52;;;3.22;;
69750;SDS011;57335;52.288;6.056;2023-11-19T10:11:48;19.10;;;3.50;;
69750;SDS011;57335;52.288;6.056;2023-11-19T10:14:16;25.00;;;4.00;;
69750;SDS011;57335;52.288;6.056;2023-11-19T10:16:46;24.27;;;3.50;;
69750;SDS011;57335;52.288;6.056;2023-11-19T10:19:18;24.33;;;3.15;;
69750;SDS011;57335;52.288;6.056;2023-11-19T10:21:49;22.85;;;3.40;;
69750;SDS011;57335;52.288;6.056;2023-11-19T10:24:15;26.17;;;3.65;;
69750;SDS011;57335;52.288;6.056;2023-11-19T10:26:44;23.92;;;4.00;;
69750;SDS011;57335;52.288;6.056;2023-11-19T10:29:12;23.45;;;3.67;;
69750;SDS011;57335;52.288;6.056;2023-11-19T10:31:40;21.42;;;3.20;;
69750;SDS011;57335;52.288;6.056;2023-11-19T10:34:11;25.02;;;3.53;;
69750;SDS011;57335;52.288;6.056;2023-11-19T10:36:51;23.50;;;3.63;;
69750;SDS011;57335;52.288;6.056;2023-11-19T10:39:18;22.02;;;3.78;;
69750;SDS011;57335;52.288;6.056;2023-11-19T10:41:44;20.88;;;3.20;;
69750;SDS011;57335;52.288;6.056;2023-11-19T10:44:11;23.30;;;4.15;;
69750;SDS011;57335;52.288;6.056;2023-11-19T10:46:41;30.52;;;3.78;;
69750;SDS011;57335;52.288;6.056;2023-11-19T10:49:08;18.17;;;2.72;;
69750;SDS011;57335;52.288;6.056;2023-11-19T10:51:35;21.40;;;3.20;;
69750;SDS011;57335;52.288;6.056;2023-11-19T10:54:03;22.50;;;3.55;;
69750;SDS011;57335;52.288;6.056;2023-11-19T10:56:34;22.10;;;3.15;;
69750;SDS011;57335;52.288;6.056;2023-11-19T10:59:01;28.65;;;4.18;;
69750;SDS011;57335;52.288;6.056;2023-11-19T11:01:48;26.70;;;3.13;;
69750;SDS011;57335;52.288;6.056;2023-11-19T11:04:19;22.27;;;3.53;;
69750;SDS011;57335;52.288;6.056;2023-11-19T11:06:49;27.25;;;3.70;;
69750;SDS011;57335;52.288;6.056;2023-11-19T11:09:17;17.55;;;2.58;;
69750;SDS011;57335;52.288;6.056;2023-11-19T11:11:46;19.10;;;2.80;;
69750;SDS011;57335;52.288;6.056;2023-11-19T11:14:14;19.38;;;3.88;;
69750;SDS011;57335;52.288;6.056;2023-11-19T11:16:43;19.80;;;3.10;;
69750;SDS011;57335;52.288;6.056;2023-11-19T11:19:10;24.63;;;3.35;;
69750;SDS011;57335;52.288;6.056;2023-11-19T11:21:39;24.67;;;4.05;;
69750;SDS011;57335;52.288;6.056;2023-11-19T11:32:24;23.67;;;3.67;;
69750;SDS011;57335;52.288;6.056;2023-11-19T11:38:03;22.23;;;2.80;;
69750;SDS011;57335;52.288;6.056;2023-11-19T11:40:32;19.35;;;3.20;;
69750;SDS011;57335;52.288;6.056;2023-11-19T11:42:59;17.15;;;3.20;;
69750;SDS011;57335;52.288;6.056;2023-11-19T11:45:38;16.85;;;2.90;;
69750;SDS011;57335;52.288;6.056;2023-11-19T11:48:10;23.95;;;3.50;;
69750;SDS011;57335;52.288;6.056;2023-11-19T11:50:47;26.65;;;3.40;;
69750;SDS011;57335;52.288;6.056;2023-11-19T11:53:22;26.05;;;3.97;;
69750;SDS011;57335;52.288;6.056;2023-11-19T11:58:18;21.52;;;2.95;;
69750;SDS011;57335;52.288;6.056;2023-11-19T12:00:51;26.58;;;3.40;;
69750;SDS011;57335;52.288;6.056;2023-11-19T12:03:22;19.58;;;3.00;;
69750;SDS011;57335;52.288;6.056;2023-11-19T12:05:49;21.48;;;3.45;;
69750;SDS011;57335;52.288;6.056;2023-11-19T12:08:19;20.85;;;2.97;;
69750;SDS011;57335;52.288;6.056;2023-11-19T12:10:52;17.15;;;3.13;;
69750;SDS011;57335;52.288;6.056;2023-11-19T12:13:24;17.15;;;2.78;;
69750;SDS011;57335;52.288;6.056;2023-11-19T12:16:09;19.67;;;3.00;;
69750;SDS011;57335;52.288;6.056;2023-11-19T12:18:36;22.23;;;3.10;;
69750;SDS011;57335;52.288;6.056;2023-11-19T12:21:05;21.58;;;2.80;;
69750;SDS011;57335;52.288;6.056;2023-11-19T12:23:32;23.50;;;3.25;;
69750;SDS011;57335;52.288;6.056;2023-11-19T12:25:58;20.50;;;3.33;;
69750;SDS011;57335;52.288;6.056;2023-11-19T12:28:25;22.23;;;3.20;;
69750;SDS011;57335;52.288;6.056;2023-11-19T12:31:06;17.70;;;2.90;;
69750;SDS011;57335;52.288;6.056;2023-11-19T12:33:35;21.67;;;2.95;;
69750;SDS011;57335;52.288;6.056;2023-11-19T12:36:02;17.65;;;3.35;;
69750;SDS011;57335;52.288;6.056;2023-11-19T12:38:32;19.30;;;3.33;;
69750;SDS011;57335;52.288;6.056;2023-11-19T12:43:32;27.10;;;3.72;;
69750;SDS011;57335;52.288;6.056;2023-11-19T12:46:25;19.33;;;2.65;;
69750;SDS011;57335;52.288;6.056;2023-11-19T12:48:53;23.80;;;3.47;;
69750;SDS011;57335;52.288;6.056;2023-11-19T12:51:20;22.60;;;3.20;;
69750;SDS011;57335;52.288;6.056;2023-11-19T12:53:47;19.58;;;3.08;;
69750;SDS011;57335;52.288;6.056;2023-11-19T12:56:15;20.50;;;3.13;;
69750;SDS011;57335;52.288;6.056;2023-11-19T12:58:42;19.95;;;3.08;;
69750;SDS011;57335;52.288;6.056;2023-11-19T13:01:09;18.65;;;3.00;;
69750;SDS011;57335;52.288;6.056;2023-11-19T13:03:36;17.48;;;3.42;;
69750;SDS011;57335;52.288;6.056;2023-11-19T13:06:06;18.35;;;3.60;;
69750;SDS011;57335;52.288;6.056;2023-11-19T13:11:08;18.48;;;2.78;;
69750;SDS011;57335;52.288;6.056;2023-11-19T13:16:24;17.73;;;3.67;;
69750;SDS011;57335;52.288;6.056;2023-11-19T13:18:52;18.98;;;3.35;;
69750;SDS011;57335;52.288;6.056;2023-11-19T13:21:19;17.73;;;2.90;;
69750;SDS011;57335;52.288;6.056;2023-11-19T13:23:46;17.15;;;2.70;;
69750;SDS011;57335;52.288;6.056;2023-11-19T13:26:12;21.88;;;2.80;;
69750;SDS011;57335;52.288;6.056;2023-11-19T13:28:39;23.70;;;3.17;;
69750;SDS011;57335;52.288;6.056;2023-11-19T13:31:06;20.98;;;3.20;;
69750;SDS011;57335;52.288;6.056;2023-11-19T13:33:32;21.48;;;3.47;;
69750;SDS011;57335;52.288;6.056;2023-11-19T13:36:00;24.17;;;3.28;;
69750;SDS011;57335;52.288;6.056;2023-11-19T13:38:32;18.27;;;2.85;;
69750;SDS011;57335;52.288;6.056;2023-11-19T13:40:59;15.07;;;3.00;;
69750;SDS011;57335;52.288;6.056;2023-11-19T13:43:26;24.38;;;4.00;;
69750;SDS011;57335;52.288;6.056;2023-11-19T13:45:54;20.88;;;3.05;;
69750;SDS011;57335;52.288;6.056;2023-11-19T13:48:21;17.60;;;2.58;;
69750;SDS011;57335;52.288;6.056;2023-11-19T13:50:48;10.80;;;2.30;;
69750;SDS011;57335;52.288;6.056;2023-11-19T13:53:15;17.98;;;2.65;;
69750;SDS011;57335;52.288;6.056;2023-11-19T13:55:42;18.80;;;2.25;;
69750;SDS011;57335;52.288;6.056;2023-11-19T13:58:10;16.08;;;2.50;;
69750;SDS011;57335;52.288;6.056;2023-11-19T14:00:37;27.92;;;3.70;;
69750;SDS011;57335;52.288;6.056;2023-11-19T14:03:04;14.52;;;2.53;;
69750;SDS011;57335;52.288;6.056;2023-11-19T14:05:31;18.42;;;2.60;;
69750;SDS011;57335;52.288;6.056;2023-11-19T14:08:00;17.52;;;2.70;;
69750;SDS011;57335;52.288;6.056;2023-11-19T14:10:29;17.65;;;2.67;;
69750;SDS011;57335;52.288;6.056;2023-11-19T14:12:55;15.40;;;2.30;;
69750;SDS011;57335;52.288;6.056;2023-11-19T14:15:22;20.92;;;3.15;;
69750;SDS011;57335;52.288;6.056;2023-11-19T14:17:48;23.40;;;2.72;;
69750;SDS011;57335;52.288;6.056;2023-11-19T14:20:15;23.65;;;3.47;;
69750;SDS011;57335;52.288;6.056;2023-11-19T14:22:43;25.40;;;3.40;;
69750;SDS011;57335;52.288;6.056;2023-11-19T14:25:10;23.40;;;3.35;;
69750;SDS011;57335;52.288;6.056;2023-11-19T14:27:38;21.98;;;3.47;;
69750;SDS011;57335;52.288;6.056;2023-11-19T14:30:05;18.45;;;2.85;;
69750;SDS011;57335;52.288;6.056;2023-11-19T14:32:33;19.67;;;2.70;;
69750;SDS011;57335;52.288;6.056;2023-11-19T14:34:59;22.35;;;2.97;;
69750;SDS011;57335;52.288;6.056;2023-11-19T14:37:26;19.63;;;2.92;;
69750;SDS011;57335;52.288;6.056;2023-11-19T14:39:53;13.70;;;2.53;;
69750;SDS011;57335;52.288;6.056;2023-11-19T14:42:19;19.38;;;2.50;;
69750;SDS011;57335;52.288;6.056;2023-11-19T14:44:46;21.23;;;2.90;;
69750;SDS011;57335;52.288;6.056;2023-11-19T14:47:12;16.20;;;2.40;;
69750;SDS011;57335;52.288;6.056;2023-11-19T14:49:39;18.38;;;2.63;;
69750;SDS011;57335;52.288;6.056;2023-11-19T14:52:05;18.35;;;2.30;;
69750;SDS011;57335;52.288;6.056;2023-11-19T14:54:35;19.50;;;2.40;;
69750;SDS011;57335;52.288;6.056;2023-11-19T14:57:01;17.17;;;2.92;;
69750;SDS011;57335;52.288;6.056;2023-11-19T14:59:29;17.25;;;2.50;;
69750;SDS011;57335;52.288;6.056;2023-11-19T15:01:56;19.50;;;2.88;;
69750;SDS011;57335;52.288;6.056;2023-11-19T15:04:23;17.90;;;2.67;;
69750;SDS011;57335;52.288;6.056;2023-11-19T15:06:50;19.80;;;2.97;;